sensor_id;sensor_type;location;lat;lon;timestamp;P1;durP1;ratioP1;P2;durP2;ratioP2
48963;SDS011;34776;48.180;16.420;2022-12-18T00:00:33;10.90;;;7.75;;
48963;SDS011;34776;48.180;16.420;2022-12-18T00:02:58;9.38;;;6.93;;
48963;SDS011;34776;48.180;16.420;2022-12-18T00:05:24;10.18;;;7.32;;
48963;SDS011;34776;48.180;16.420;2022-12-18T00:07:49;9.27;;;7.50;;
48963;SDS011;34776;48.180;16.420;2022-12-18T00:10:14;11.23;;;6.95;;
48963;SDS011;34776;48.180;16.420;2022-12-18T00:12:43;9.10;;;6.65;;
48963;SDS011;34776;48.180;16.420;2022-12-18T00:15:08;8.68;;;6.88;;
48963;SDS011;34776;48.180;16.420;2022-12-18T00:17:34;10.07;;;7.22;;
48963;SDS011;34776;48.180;16.420;2022-12-18T00:19:59;11.98;;;8.18;;
48963;SDS011;34776;48.180;16.420;2022-12-18T00:22:24;10.02;;;7.45;;
48963;SDS011;34776;48.180;16.420;2022-12-18T00:24:50;8.07;;;6.63;;
48963;SDS011;34776;48.180;16.420;2022-12-18T00:27:15;10.57;;;7.43;;
48963;SDS011;34776;48.180;16.420;2022-12-18T00:29:40;9.18;;;6.03;;
48963;SDS011;34776;48.180;16.420;2022-12-18T00:32:06;10.63;;;7.40;;
48963;SDS011;34776;48.180;16.420;2022-12-18T00:34:31;8.48;;;7.00;;
48963;SDS011;34776;48.180;16.420;2022-12-18T00:36:56;7.63;;;5.88;;
48963;SDS011;34776;48.180;16.420;2022-12-18T00:39:22;8.30;;;6.15;;
48963;SDS011;34776;48.180;16.420;2022-12-18T00:41:47;8.27;;;6.10;;
48963;SDS011;34776;48.180;16.420;2022-12-18T00:44:31;10.82;;;6.80;;
48963;SDS011;34776;48.180;16.420;2022-12-18T00:46:56;10.75;;;6.90;;
48963;SDS011;34776;48.180;16.420;2022-12-18T00:49:22;9.05;;;6.40;;
48963;SDS011;34776;48.180;16.420;2022-12-18T00:51:47;9.90;;;7.35;;
48963;SDS011;34776;48.180;16.420;2022-12-18T00:54:13;11.68;;;7.18;;
48963;SDS011;34776;48.180;16.420;2022-12-18T00:56:39;10.30;;;7.75;;
48963;SDS011;34776;48.180;16.420;2022-12-18T00:59:05;10.05;;;7.20;;
48963;SDS011;34776;48.180;16.420;2022-12-18T01:01:31;12.80;;;8.25;;
48963;SDS011;34776;48.180;16.420;2022-12-18T01:03:57;10.57;;;7.75;;
48963;SDS011;34776;48.180;16.420;2022-12-18T01:06:24;10.55;;;7.78;;
48963;SDS011;34776;48.180;16.420;2022-12-18T01:08:49;10.32;;;7.18;;
48963;SDS011;34776;48.180;16.420;2022-12-18T01:11:16;10.52;;;7.45;;
48963;SDS011;34776;48.180;16.420;2022-12-18T01:13:42;13.20;;;9.10;;
48963;SDS011;34776;48.180;16.420;2022-12-18T01:16:10;13.80;;;8.90;;
48963;SDS011;34776;48.180;16.420;2022-12-18T01:18:36;10.07;;;8.02;;
48963;SDS011;34776;48.180;16.420;2022-12-18T01:21:06;11.43;;;8.70;;
48963;SDS011;34776;48.180;16.420;2022-12-18T01:23:32;14.43;;;9.20;;
48963;SDS011;34776;48.180;16.420;2022-12-18T01:25:57;12.00;;;8.35;;
48963;SDS011;34776;48.180;16.420;2022-12-18T01:28:23;13.80;;;9.15;;
48963;SDS011;34776;48.180;16.420;2022-12-18T01:30:48;17.48;;;10.57;;
48963;SDS011;34776;48.180;16.420;2022-12-18T01:33:13;13.65;;;9.27;;
48963;SDS011;34776;48.180;16.420;2022-12-18T01:35:42;15.63;;;11.02;;
48963;SDS011;34776;48.180;16.420;2022-12-18T01:38:08;17.38;;;10.90;;
48963;SDS011;34776;48.180;16.420;2022-12-18T01:40:34;13.73;;;10.43;;
48963;SDS011;34776;48.180;16.420;2022-12-18T01:42:59;19.33;;;12.75;;
48963;SDS011;34776;48.180;16.420;2022-12-18T01:45:26;17.65;;;11.45;;
48963;SDS011;34776;48.180;16.420;2022-12-18T01:48:03;18.85;;;11.43;;
48963;SDS011;34776;48.180;16.420;2022-12-18T01:50:32;17.70;;;11.25;;
48963;SDS011;34776;48.180;16.420;2022-12-18T01:53:06;17.92;;;12.27;;
48963;SDS011;34776;48.180;16.420;2022-12-18T01:55:46;17.88;;;12.82;;
48963;SDS011;34776;48.180;16.420;2022-12-18T01:58:18;20.05;;;12.85;;
48963;SDS011;34776;48.180;16.420;2022-12-18T02:00:47;19.65;;;12.13;;
48963;SDS011;34776;48.180;16.420;2022-12-18T02:03:12;18.42;;;11.57;;
48963;SDS011;34776;48.180;16.420;2022-12-18T02:08:18;22.35;;;13.23;;
48963;SDS011;34776;48.180;16.420;2022-12-18T02:10:50;18.00;;;12.60;;
48963;SDS011;34776;48.180;16.420;2022-12-18T02:13:26;17.60;;;12.35;;
48963;SDS011;34776;48.180;16.420;2022-12-18T02:15:58;21.00;;;13.75;;
48963;SDS011;34776;48.180;16.420;2022-12-18T02:18:44;17.65;;;12.07;;
48963;SDS011;34776;48.180;16.420;2022-12-18T02:26:50;18.50;;;12.82;;
48963;SDS011;34776;48.180;16.420;2022-12-18T02:29:16;18.70;;;13.77;;
48963;SDS011;34776;48.180;16.420;2022-12-18T02:31:52;21.48;;;13.82;;
48963;SDS011;34776;48.180;16.420;2022-12-18T02:34:21;21.20;;;13.55;;
48963;SDS011;34776;48.180;16.420;2022-12-18T02:36:51;21.55;;;14.75;;
48963;SDS011;34776;48.180;16.420;2022-12-18T02:39:19;19.80;;;13.30;;
48963;SDS011;34776;48.180;16.420;2022-12-18T02:41:47;19.23;;;12.80;;
48963;SDS011;34776;48.180;16.420;2022-12-18T02:44:13;22.67;;;13.75;;
48963;SDS011;34776;48.180;16.420;2022-12-18T02:46:40;19.83;;;13.15;;
48963;SDS011;34776;48.180;16.420;2022-12-18T02:57:40;24.90;;;14.48;;
48963;SDS011;34776;48.180;16.420;2022-12-18T03:02:45;21.67;;;13.55;;
48963;SDS011;34776;48.180;16.420;2022-12-18T03:08:03;19.63;;;12.82;;
48963;SDS011;34776;48.180;16.420;2022-12-18T03:10:35;22.40;;;15.40;;
48963;SDS011;34776;48.180;16.420;2022-12-18T03:13:19;22.00;;;14.75;;
48963;SDS011;34776;48.180;16.420;2022-12-18T03:15:54;23.08;;;14.80;;
48963;SDS011;34776;48.180;16.420;2022-12-18T03:18:27;25.23;;;15.45;;
48963;SDS011;34776;48.180;16.420;2022-12-18T03:20:58;20.58;;;13.80;;
48963;SDS011;34776;48.180;16.420;2022-12-18T03:23:29;21.85;;;14.60;;
48963;SDS011;34776;48.180;16.420;2022-12-18T03:26:02;21.33;;;13.05;;
48963;SDS011;34776;48.180;16.420;2022-12-18T03:28:32;19.67;;;13.57;;
48963;SDS011;34776;48.180;16.420;2022-12-18T03:31:03;21.92;;;14.45;;
48963;SDS011;34776;48.180;16.420;2022-12-18T03:33:34;21.30;;;14.50;;
48963;SDS011;34776;48.180;16.420;2022-12-18T03:36:06;19.52;;;12.38;;
48963;SDS011;34776;48.180;16.420;2022-12-18T03:38:31;20.13;;;13.35;;
48963;SDS011;34776;48.180;16.420;2022-12-18T03:49:05;19.95;;;13.05;;
48963;SDS011;34776;48.180;16.420;2022-12-18T03:54:13;20.55;;;13.48;;
48963;SDS011;34776;48.180;16.420;2022-12-18T03:56:42;20.42;;;13.52;;
48963;SDS011;34776;48.180;16.420;2022-12-18T03:59:12;21.83;;;14.77;;
48963;SDS011;34776;48.180;16.420;2022-12-18T04:01:40;23.30;;;14.75;;
48963;SDS011;34776;48.180;16.420;2022-12-18T04:04:11;19.65;;;12.35;;
48963;SDS011;34776;48.180;16.420;2022-12-18T04:06:39;20.90;;;14.10;;
48963;SDS011;34776;48.180;16.420;2022-12-18T04:09:06;21.02;;;13.43;;
48963;SDS011;34776;48.180;16.420;2022-12-18T04:11:32;21.45;;;14.05;;
48963;SDS011;34776;48.180;16.420;2022-12-18T04:13:57;24.13;;;14.55;;
48963;SDS011;34776;48.180;16.420;2022-12-18T04:16:26;21.63;;;13.85;;
48963;SDS011;34776;48.180;16.420;2022-12-18T04:18:52;26.40;;;15.18;;
48963;SDS011;34776;48.180;16.420;2022-12-18T04:21:17;21.55;;;13.48;;
48963;SDS011;34776;48.180;16.420;2022-12-18T04:23:43;23.85;;;14.02;;
48963;SDS011;34776;48.180;16.420;2022-12-18T04:26:08;22.67;;;13.85;;
48963;SDS011;34776;48.180;16.420;2022-12-18T04:28:33;20.80;;;14.55;;
48963;SDS011;34776;48.180;16.420;2022-12-18T04:30:59;25.63;;;15.95;;
48963;SDS011;34776;48.180;16.420;2022-12-18T04:33:24;21.73;;;13.63;;
48963;SDS011;34776;48.180;16.420;2022-12-18T04:35:50;25.05;;;15.68;;
48963;SDS011;34776;48.180;16.420;2022-12-18T04:38:15;24.95;;;15.57;;
48963;SDS011;34776;48.180;16.420;2022-12-18T04:40:41;21.60;;;13.65;;
48963;SDS011;34776;48.180;16.420;2022-12-18T04:43:06;21.65;;;14.90;;
48963;SDS011;34776;48.180;16.420;2022-12-18T04:45:32;22.75;;;14.30;;
48963;SDS011;34776;48.180;16.420;2022-12-18T04:47:58;22.20;;;15.25;;
48963;SDS011;34776;48.180;16.420;2022-12-18T04:50:24;24.35;;;14.98;;
48963;SDS011;34776;48.180;16.420;2022-12-18T04:52:50;23.13;;;15.10;;
48963;SDS011;34776;48.180;16.420;2022-12-18T04:55:15;23.05;;;14.07;;
48963;SDS011;34776;48.180;16.420;2022-12-18T04:57:41;22.25;;;14.45;;
48963;SDS011;34776;48.180;16.420;2022-12-18T05:00:06;24.42;;;15.40;;
48963;SDS011;34776;48.180;16.420;2022-12-18T05:02:32;21.83;;;14.38;;
48963;SDS011;34776;48.180;16.420;2022-12-18T05:04:58;23.38;;;15.15;;
48963;SDS011;34776;48.180;16.420;2022-12-18T05:07:23;27.25;;;15.27;;
48963;SDS011;34776;48.180;16.420;2022-12-18T05:09:49;31.60;;;18.45;;
48963;SDS011;34776;48.180;16.420;2022-12-18T05:12:14;40.38;;;21.95;;
48963;SDS011;34776;48.180;16.420;2022-12-18T05:14:40;36.60;;;20.27;;
48963;SDS011;34776;48.180;16.420;2022-12-18T05:17:06;33.83;;;18.92;;
48963;SDS011;34776;48.180;16.420;2022-12-18T05:19:32;38.58;;;20.75;;
48963;SDS011;34776;48.180;16.420;2022-12-18T05:21:58;42.05;;;21.65;;
48963;SDS011;34776;48.180;16.420;2022-12-18T05:24:23;44.90;;;21.30;;
48963;SDS011;34776;48.180;16.420;2022-12-18T05:26:48;52.47;;;25.23;;
48963;SDS011;34776;48.180;16.420;2022-12-18T05:29:14;43.25;;;22.35;;
48963;SDS011;34776;48.180;16.420;2022-12-18T05:31:39;38.95;;;21.52;;
48963;SDS011;34776;48.180;16.420;2022-12-18T05:34:05;36.45;;;20.25;;
48963;SDS011;34776;48.180;16.420;2022-12-18T05:36:31;37.85;;;20.67;;
48963;SDS011;34776;48.180;16.420;2022-12-18T05:38:56;36.05;;;20.08;;
48963;SDS011;34776;48.180;16.420;2022-12-18T05:41:21;36.83;;;21.00;;
48963;SDS011;34776;48.180;16.420;2022-12-18T05:43:47;33.95;;;18.17;;
48963;SDS011;34776;48.180;16.420;2022-12-18T05:46:13;35.08;;;20.45;;
48963;SDS011;34776;48.180;16.420;2022-12-18T05:48:41;32.35;;;17.98;;
48963;SDS011;34776;48.180;16.420;2022-12-18T05:51:08;32.47;;;19.42;;
48963;SDS011;34776;48.180;16.420;2022-12-18T05:53:36;32.05;;;18.95;;
48963;SDS011;34776;48.180;16.420;2022-12-18T05:56:03;27.33;;;16.08;;
48963;SDS011;34776;48.180;16.420;2022-12-18T05:58:30;26.95;;;17.05;;
48963;SDS011;34776;48.180;16.420;2022-12-18T06:00:56;30.45;;;17.23;;
48963;SDS011;34776;48.180;16.420;2022-12-18T06:03:22;31.60;;;18.27;;
48963;SDS011;34776;48.180;16.420;2022-12-18T06:05:47;34.15;;;18.13;;
48963;SDS011;34776;48.180;16.420;2022-12-18T06:08:13;31.95;;;19.33;;
48963;SDS011;34776;48.180;16.420;2022-12-18T06:10:39;28.48;;;17.17;;
48963;SDS011;34776;48.180;16.420;2022-12-18T06:13:05;27.60;;;17.67;;
48963;SDS011;34776;48.180;16.420;2022-12-18T06:15:31;27.60;;;17.10;;
48963;SDS011;34776;48.180;16.420;2022-12-18T06:17:57;32.03;;;18.92;;
48963;SDS011;34776;48.180;16.420;2022-12-18T06:20:22;29.55;;;17.95;;
48963;SDS011;34776;48.180;16.420;2022-12-18T06:22:47;27.35;;;17.40;;
48963;SDS011;34776;48.180;16.420;2022-12-18T06:25:13;24.95;;;16.70;;
48963;SDS011;34776;48.180;16.420;2022-12-18T06:27:39;26.33;;;17.13;;
48963;SDS011;34776;48.180;16.420;2022-12-18T06:30:05;33.42;;;19.25;;
48963;SDS011;34776;48.180;16.420;2022-12-18T06:32:31;55.80;;;26.35;;
48963;SDS011;34776;48.180;16.420;2022-12-18T06:34:57;47.33;;;22.88;;
48963;SDS011;34776;48.180;16.420;2022-12-18T06:37:22;46.67;;;23.65;;
48963;SDS011;34776;48.180;16.420;2022-12-18T06:39:51;42.95;;;22.42;;
48963;SDS011;34776;48.180;16.420;2022-12-18T06:42:17;53.42;;;24.50;;
48963;SDS011;34776;48.180;16.420;2022-12-18T06:44:43;50.35;;;23.75;;
48963;SDS011;34776;48.180;16.420;2022-12-18T06:47:08;44.08;;;21.55;;
48963;SDS011;34776;48.180;16.420;2022-12-18T06:49:34;48.45;;;23.67;;
48963;SDS011;34776;48.180;16.420;2022-12-18T06:51:59;46.10;;;21.27;;
48963;SDS011;34776;48.180;16.420;2022-12-18T06:54:24;38.65;;;19.05;;
48963;SDS011;34776;48.180;16.420;2022-12-18T06:56:50;39.88;;;20.73;;
48963;SDS011;34776;48.180;16.420;2022-12-18T06:59:15;37.17;;;20.30;;
48963;SDS011;34776;48.180;16.420;2022-12-18T07:01:41;32.72;;;19.70;;
48963;SDS011;34776;48.180;16.420;2022-12-18T07:04:06;41.15;;;24.63;;
48963;SDS011;34776;48.180;16.420;2022-12-18T07:06:32;37.15;;;22.00;;
48963;SDS011;34776;48.180;16.420;2022-12-18T07:08:57;38.13;;;21.67;;
48963;SDS011;34776;48.180;16.420;2022-12-18T07:11:23;34.28;;;21.08;;
48963;SDS011;34776;48.180;16.420;2022-12-18T07:13:49;35.30;;;20.85;;
48963;SDS011;34776;48.180;16.420;2022-12-18T07:16:15;28.90;;;19.40;;
48963;SDS011;34776;48.180;16.420;2022-12-18T07:18:42;28.65;;;18.20;;
48963;SDS011;34776;48.180;16.420;2022-12-18T07:21:09;31.08;;;19.95;;
48963;SDS011;34776;48.180;16.420;2022-12-18T07:23:36;29.42;;;19.92;;
48963;SDS011;34776;48.180;16.420;2022-12-18T07:26:06;27.73;;;19.20;;
48963;SDS011;34776;48.180;16.420;2022-12-18T07:28:36;28.90;;;17.92;;
48963;SDS011;34776;48.180;16.420;2022-12-18T07:31:06;30.77;;;18.65;;
48963;SDS011;34776;48.180;16.420;2022-12-18T07:33:34;27.75;;;17.23;;
48963;SDS011;34776;48.180;16.420;2022-12-18T07:36:00;28.40;;;18.15;;
48963;SDS011;34776;48.180;16.420;2022-12-18T07:38:28;30.60;;;17.13;;
48963;SDS011;34776;48.180;16.420;2022-12-18T07:40:53;28.77;;;17.73;;
48963;SDS011;34776;48.180;16.420;2022-12-18T07:43:19;25.77;;;17.05;;
48963;SDS011;34776;48.180;16.420;2022-12-18T07:45:44;32.92;;;19.75;;
48963;SDS011;34776;48.180;16.420;2022-12-18T07:48:09;23.80;;;16.70;;
48963;SDS011;34776;48.180;16.420;2022-12-18T07:50:35;28.60;;;17.95;;
48963;SDS011;34776;48.180;16.420;2022-12-18T07:53:00;27.20;;;18.83;;
48963;SDS011;34776;48.180;16.420;2022-12-18T07:55:30;29.15;;;19.55;;
48963;SDS011;34776;48.180;16.420;2022-12-18T07:57:56;41.88;;;27.42;;
48963;SDS011;34776;48.180;16.420;2022-12-18T08:00:22;31.00;;;19.98;;
48963;SDS011;34776;48.180;16.420;2022-12-18T08:02:47;26.95;;;18.90;;
48963;SDS011;34776;48.180;16.420;2022-12-18T08:05:13;29.77;;;18.95;;
48963;SDS011;34776;48.180;16.420;2022-12-18T08:07:38;30.20;;;20.90;;
48963;SDS011;34776;48.180;16.420;2022-12-18T08:10:04;29.50;;;20.08;;
48963;SDS011;34776;48.180;16.420;2022-12-18T08:12:31;26.02;;;18.80;;
48963;SDS011;34776;48.180;16.420;2022-12-18T08:14:56;28.05;;;18.25;;
48963;SDS011;34776;48.180;16.420;2022-12-18T08:17:22;30.58;;;19.40;;
48963;SDS011;34776;48.180;16.420;2022-12-18T08:19:47;29.40;;;19.27;;
48963;SDS011;34776;48.180;16.420;2022-12-18T08:22:13;32.58;;;22.65;;
48963;SDS011;34776;48.180;16.420;2022-12-18T08:24:38;32.95;;;21.50;;
48963;SDS011;34776;48.180;16.420;2022-12-18T08:27:03;31.02;;;19.67;;
48963;SDS011;34776;48.180;16.420;2022-12-18T08:29:29;30.85;;;21.13;;
48963;SDS011;34776;48.180;16.420;2022-12-18T08:31:55;29.00;;;19.30;;
48963;SDS011;34776;48.180;16.420;2022-12-18T08:34:20;32.75;;;20.30;;
48963;SDS011;34776;48.180;16.420;2022-12-18T08:36:46;30.08;;;21.40;;
48963;SDS011;34776;48.180;16.420;2022-12-18T08:39:11;34.80;;;22.55;;
48963;SDS011;34776;48.180;16.420;2022-12-18T08:41:36;29.23;;;19.35;;
48963;SDS011;34776;48.180;16.420;2022-12-18T08:44:02;32.35;;;22.42;;
48963;SDS011;34776;48.180;16.420;2022-12-18T08:46:46;31.35;;;21.40;;
48963;SDS011;34776;48.180;16.420;2022-12-18T08:49:11;36.67;;;23.40;;
48963;SDS011;34776;48.180;16.420;2022-12-18T08:51:37;32.90;;;22.95;;
48963;SDS011;34776;48.180;16.420;2022-12-18T08:54:03;35.80;;;22.40;;
48963;SDS011;34776;48.180;16.420;2022-12-18T08:56:29;32.05;;;22.33;;
48963;SDS011;34776;48.180;16.420;2022-12-18T08:58:55;34.58;;;22.83;;
48963;SDS011;34776;48.180;16.420;2022-12-18T09:01:20;35.53;;;23.65;;
48963;SDS011;34776;48.180;16.420;2022-12-18T09:03:46;36.90;;;23.85;;
48963;SDS011;34776;48.180;16.420;2022-12-18T09:06:19;37.58;;;24.50;;
48963;SDS011;34776;48.180;16.420;2022-12-18T09:08:46;39.90;;;24.48;;
48963;SDS011;34776;48.180;16.420;2022-12-18T09:11:13;39.08;;;25.27;;
48963;SDS011;34776;48.180;16.420;2022-12-18T09:13:43;35.38;;;24.10;;
48963;SDS011;34776;48.180;16.420;2022-12-18T09:16:09;35.38;;;23.80;;
48963;SDS011;34776;48.180;16.420;2022-12-18T09:18:34;41.35;;;27.67;;
48963;SDS011;34776;48.180;16.420;2022-12-18T09:21:06;40.58;;;26.20;;
48963;SDS011;34776;48.180;16.420;2022-12-18T09:23:32;34.80;;;24.23;;
48963;SDS011;34776;48.180;16.420;2022-12-18T09:25:58;39.35;;;25.95;;
48963;SDS011;34776;48.180;16.420;2022-12-18T09:28:24;40.10;;;25.75;;
48963;SDS011;34776;48.180;16.420;2022-12-18T09:30:50;37.03;;;22.63;;
48963;SDS011;34776;48.180;16.420;2022-12-18T09:33:15;37.20;;;23.25;;
48963;SDS011;34776;48.180;16.420;2022-12-18T09:35:42;37.85;;;23.33;;
48963;SDS011;34776;48.180;16.420;2022-12-18T09:38:11;32.35;;;21.70;;
48963;SDS011;34776;48.180;16.420;2022-12-18T09:40:42;37.72;;;24.48;;
48963;SDS011;34776;48.180;16.420;2022-12-18T09:43:13;34.95;;;22.65;;
48963;SDS011;34776;48.180;16.420;2022-12-18T09:45:44;35.83;;;22.95;;
48963;SDS011;34776;48.180;16.420;2022-12-18T09:48:19;34.47;;;22.15;;
48963;SDS011;34776;48.180;16.420;2022-12-18T09:50:48;39.50;;;22.92;;
48963;SDS011;34776;48.180;16.420;2022-12-18T09:53:19;35.72;;;23.25;;
48963;SDS011;34776;48.180;16.420;2022-12-18T09:55:49;33.20;;;21.98;;
48963;SDS011;34776;48.180;16.420;2022-12-18T09:58:18;34.40;;;21.35;;
48963;SDS011;34776;48.180;16.420;2022-12-18T10:00:56;35.35;;;21.92;;
48963;SDS011;34776;48.180;16.420;2022-12-18T10:03:22;34.00;;;22.30;;
48963;SDS011;34776;48.180;16.420;2022-12-18T10:14:50;35.70;;;22.35;;
48963;SDS011;34776;48.180;16.420;2022-12-18T10:23:12;37.45;;;22.85;;
48963;SDS011;34776;48.180;16.420;2022-12-18T10:26:05;37.58;;;22.77;;
48963;SDS011;34776;48.180;16.420;2022-12-18T10:28:33;32.00;;;20.50;;
48963;SDS011;34776;48.180;16.420;2022-12-18T10:31:01;40.42;;;23.95;;
48963;SDS011;34776;48.180;16.420;2022-12-18T10:33:28;37.10;;;23.67;;
48963;SDS011;34776;48.180;16.420;2022-12-18T10:35:56;38.67;;;23.42;;
48963;SDS011;34776;48.180;16.420;2022-12-18T10:38:29;37.00;;;23.45;;
48963;SDS011;34776;48.180;16.420;2022-12-18T10:41:01;38.65;;;24.05;;
48963;SDS011;34776;48.180;16.420;2022-12-18T10:46:04;36.33;;;22.67;;
48963;SDS011;34776;48.180;16.420;2022-12-18T10:51:21;50.28;;;31.02;;
48963;SDS011;34776;48.180;16.420;2022-12-18T10:54:34;36.75;;;22.33;;
48963;SDS011;34776;48.180;16.420;2022-12-18T10:56:41;38.42;;;22.10;;
48963;SDS011;34776;48.180;16.420;2022-12-18T10:59:08;38.08;;;22.27;;
48963;SDS011;34776;48.180;16.420;2022-12-18T11:01:54;34.17;;;21.23;;
48963;SDS011;34776;48.180;16.420;2022-12-18T11:04:22;38.30;;;24.83;;
48963;SDS011;34776;48.180;16.420;2022-12-18T11:07:02;31.70;;;21.35;;
48963;SDS011;34776;48.180;16.420;2022-12-18T11:09:30;35.35;;;21.30;;
48963;SDS011;34776;48.180;16.420;2022-12-18T11:11:58;37.60;;;21.90;;
48963;SDS011;34776;48.180;16.420;2022-12-18T11:14:33;32.90;;;21.92;;
48963;SDS011;34776;48.180;16.420;2022-12-18T11:17:16;35.63;;;22.10;;
48963;SDS011;34776;48.180;16.420;2022-12-18T11:19:59;35.25;;;22.08;;
48963;SDS011;34776;48.180;16.420;2022-12-18T11:22:31;33.05;;;21.27;;
48963;SDS011;34776;48.180;16.420;2022-12-18T11:25:01;34.03;;;21.13;;
48963;SDS011;34776;48.180;16.420;2022-12-18T11:27:36;32.63;;;21.77;;
48963;SDS011;34776;48.180;16.420;2022-12-18T11:30:20;35.35;;;22.30;;
48963;SDS011;34776;48.180;16.420;2022-12-18T11:32:49;39.08;;;23.90;;
48963;SDS011;34776;48.180;16.420;2022-12-18T11:35:20;34.33;;;21.10;;
48963;SDS011;34776;48.180;16.420;2022-12-18T11:37:53;33.83;;;21.70;;
48963;SDS011;34776;48.180;16.420;2022-12-18T11:43:16;36.65;;;21.65;;
48963;SDS011;34776;48.180;16.420;2022-12-18T11:45:54;34.33;;;22.15;;
48963;SDS011;34776;48.180;16.420;2022-12-18T11:48:27;40.72;;;24.45;;
48963;SDS011;34776;48.180;16.420;2022-12-18T11:50:55;39.55;;;23.17;;
48963;SDS011;34776;48.180;16.420;2022-12-18T11:53:22;32.92;;;20.98;;
48963;SDS011;34776;48.180;16.420;2022-12-18T11:56:04;33.60;;;21.17;;
48963;SDS011;34776;48.180;16.420;2022-12-18T11:58:54;38.72;;;24.58;;
48963;SDS011;34776;48.180;16.420;2022-12-18T12:04:09;44.28;;;25.42;;
48963;SDS011;34776;48.180;16.420;2022-12-18T12:11:39;39.13;;;24.30;;
48963;SDS011;34776;48.180;16.420;2022-12-18T12:14:31;48.65;;;29.50;;
48963;SDS011;34776;48.180;16.420;2022-12-18T12:17:47;35.72;;;23.17;;
48963;SDS011;34776;48.180;16.420;2022-12-18T12:19:56;36.80;;;22.67;;
48963;SDS011;34776;48.180;16.420;2022-12-18T12:30:51;33.67;;;21.73;;
48963;SDS011;34776;48.180;16.420;2022-12-18T12:33:42;36.80;;;21.48;;
48963;SDS011;34776;48.180;16.420;2022-12-18T12:36:59;37.80;;;24.13;;
48963;SDS011;34776;48.180;16.420;2022-12-18T12:39:30;38.08;;;22.95;;
48963;SDS011;34776;48.180;16.420;2022-12-18T12:41:59;41.00;;;23.75;;
48963;SDS011;34776;48.180;16.420;2022-12-18T12:44:46;41.90;;;24.35;;
48963;SDS011;34776;48.180;16.420;2022-12-18T12:47:18;39.08;;;24.85;;
48963;SDS011;34776;48.180;16.420;2022-12-18T12:49:48;39.15;;;24.55;;
48963;SDS011;34776;48.180;16.420;2022-12-18T12:52:15;38.03;;;24.33;;
48963;SDS011;34776;48.180;16.420;2022-12-18T12:54:42;37.95;;;24.88;;
48963;SDS011;34776;48.180;16.420;2022-12-18T12:57:11;42.95;;;25.40;;
48963;SDS011;34776;48.180;16.420;2022-12-18T13:07:40;47.58;;;29.73;;
48963;SDS011;34776;48.180;16.420;2022-12-18T13:10:12;49.40;;;26.45;;
48963;SDS011;34776;48.180;16.420;2022-12-18T13:15:28;39.65;;;23.60;;
48963;SDS011;34776;48.180;16.420;2022-12-18T13:20:39;37.42;;;23.30;;
48963;SDS011;34776;48.180;16.420;2022-12-18T13:25:48;42.10;;;25.75;;
48963;SDS011;34776;48.180;16.420;2022-12-18T13:28:14;41.75;;;26.02;;
48963;SDS011;34776;48.180;16.420;2022-12-18T13:30:47;43.47;;;25.45;;
48963;SDS011;34776;48.180;16.420;2022-12-18T13:35:40;41.45;;;24.80;;
48963;SDS011;34776;48.180;16.420;2022-12-18T13:40:59;38.42;;;23.30;;
48963;SDS011;34776;48.180;16.420;2022-12-18T13:43:47;43.20;;;24.45;;
48963;SDS011;34776;48.180;16.420;2022-12-18T13:49:37;44.95;;;27.02;;
48963;SDS011;34776;48.180;16.420;2022-12-18T13:51:40;38.38;;;23.77;;
48963;SDS011;34776;48.180;16.420;2022-12-18T13:56:53;39.43;;;23.27;;
48963;SDS011;34776;48.180;16.420;2022-12-18T13:59:38;39.00;;;22.98;;
48963;SDS011;34776;48.180;16.420;2022-12-18T14:02:12;41.88;;;24.83;;
48963;SDS011;34776;48.180;16.420;2022-12-18T14:04:40;51.03;;;29.70;;
48963;SDS011;34776;48.180;16.420;2022-12-18T14:07:06;49.70;;;28.45;;
48963;SDS011;34776;48.180;16.420;2022-12-18T14:09:40;47.35;;;27.00;;
48963;SDS011;34776;48.180;16.420;2022-12-18T14:12:44;53.58;;;30.55;;
48963;SDS011;34776;48.180;16.420;2022-12-18T14:20:35;60.55;;;33.00;;
48963;SDS011;34776;48.180;16.420;2022-12-18T14:23:00;57.90;;;31.38;;
48963;SDS011;34776;48.180;16.420;2022-12-18T14:25:27;57.72;;;32.33;;
48963;SDS011;34776;48.180;16.420;2022-12-18T14:28:15;57.15;;;30.58;;
48963;SDS011;34776;48.180;16.420;2022-12-18T14:30:42;57.28;;;31.20;;
48963;SDS011;34776;48.180;16.420;2022-12-18T14:33:13;55.33;;;31.95;;
48963;SDS011;34776;48.180;16.420;2022-12-18T14:35:53;53.28;;;29.80;;
48963;SDS011;34776;48.180;16.420;2022-12-18T14:38:28;51.63;;;30.02;;
48963;SDS011;34776;48.180;16.420;2022-12-18T14:43:26;53.25;;;31.52;;
48963;SDS011;34776;48.180;16.420;2022-12-18T14:45:54;53.63;;;29.63;;
48963;SDS011;34776;48.180;16.420;2022-12-18T14:48:22;61.80;;;33.67;;
48963;SDS011;34776;48.180;16.420;2022-12-18T14:53:36;51.97;;;29.85;;
48963;SDS011;34776;48.180;16.420;2022-12-18T14:56:03;54.65;;;29.42;;
48963;SDS011;34776;48.180;16.420;2022-12-18T14:58:39;59.22;;;32.20;;
48963;SDS011;34776;48.180;16.420;2022-12-18T15:01:17;59.08;;;31.40;;
48963;SDS011;34776;48.180;16.420;2022-12-18T15:03:43;59.17;;;31.70;;
48963;SDS011;34776;48.180;16.420;2022-12-18T15:06:42;58.40;;;31.05;;
48963;SDS011;34776;48.180;16.420;2022-12-18T15:09:05;59.10;;;31.85;;
48963;SDS011;34776;48.180;16.420;2022-12-18T15:11:47;49.08;;;28.25;;
48963;SDS011;34776;48.180;16.420;2022-12-18T15:17:21;50.63;;;29.75;;
48963;SDS011;34776;48.180;16.420;2022-12-18T15:19:48;49.25;;;27.17;;
48963;SDS011;34776;48.180;16.420;2022-12-18T15:24:46;59.72;;;31.13;;
48963;SDS011;34776;48.180;16.420;2022-12-18T15:27:31;51.55;;;29.85;;
48963;SDS011;34776;48.180;16.420;2022-12-18T15:32:32;49.60;;;28.23;;
48963;SDS011;34776;48.180;16.420;2022-12-18T15:35:02;51.40;;;27.33;;
48963;SDS011;34776;48.180;16.420;2022-12-18T15:37:34;54.92;;;29.25;;
48963;SDS011;34776;48.180;16.420;2022-12-18T15:40:00;52.97;;;29.83;;
48963;SDS011;34776;48.180;16.420;2022-12-18T15:42:27;47.60;;;27.33;;
48963;SDS011;34776;48.180;16.420;2022-12-18T15:45:12;46.45;;;26.88;;
48963;SDS011;34776;48.180;16.420;2022-12-18T15:47:39;45.75;;;26.10;;
48963;SDS011;34776;48.180;16.420;2022-12-18T15:50:06;47.10;;;26.02;;
48963;SDS011;34776;48.180;16.420;2022-12-18T15:52:32;46.28;;;24.95;;
48963;SDS011;34776;48.180;16.420;2022-12-18T15:55:15;49.58;;;26.83;;
48963;SDS011;34776;48.180;16.420;2022-12-18T15:58:05;38.78;;;22.70;;
48963;SDS011;34776;48.180;16.420;2022-12-18T16:00:32;41.95;;;25.13;;
48963;SDS011;34776;48.180;16.420;2022-12-18T16:02:59;43.42;;;25.05;;
48963;SDS011;34776;48.180;16.420;2022-12-18T16:05:25;44.88;;;25.20;;
48963;SDS011;34776;48.180;16.420;2022-12-18T16:07:51;43.80;;;24.27;;
48963;SDS011;34776;48.180;16.420;2022-12-18T16:10:17;40.90;;;24.50;;
48963;SDS011;34776;48.180;16.420;2022-12-18T16:12:42;41.53;;;23.33;;
48963;SDS011;34776;48.180;16.420;2022-12-18T16:15:10;41.75;;;24.52;;
48963;SDS011;34776;48.180;16.420;2022-12-18T16:17:41;43.40;;;24.15;;
48963;SDS011;34776;48.180;16.420;2022-12-18T16:20:16;42.58;;;23.20;;